Adriatic — WDH8057 — position and weather

sailwx.info

Track history (hours):
 
Tides and Currents Weather Stations Pressure Air Temp Water Temp Dewpoint Dewpoint Depression Visibility Wind Speed Wind Dir Waves Ship Positions

Adriatic

Owner: ADRIATIC MARINE, LLC, Raceland, LA. More information available from US FCC via Universal Licensing System and Coast Guard Vessel Documentation Center.

Last reported at 2017-Oct-15 11:17 UTC. Time now 2017-Oct-22 23:01 UTC.
Position N 29°38' W 092°16'.

Length 59 m; draft 3.7 m.

Type: Ship. MMSI: 367654230.

Date/timePositionNaut miles runAvg speedWind from/ knotsBaromVisibWave heightAir tempDewpointWater temp
2017-Oct-15 11:17N 29°38' W 092°16'2 8.1
2017-Oct-15 11:00N 29°40' W 092°15'4 8.7
2017-Oct-15 10:30N 29°44' W 092°14'4 8.5
2017-Oct-15 10:00N 29°46' W 092°10'2 3.7
2017-Oct-15 09:30N 29°48' W 092°09'0 0.0
2017-Oct-15 09:00N 29°48' W 092°09'0 0.0
2017-Oct-15 08:30N 29°48' W 092°09'0 0.0
2017-Oct-15 08:00N 29°48' W 092°09'0 0.0
2017-Oct-15 07:30N 29°48' W 092°09'0 0.0
2017-Oct-15 07:00N 29°48' W 092°09'0 0.0
2017-Oct-15 06:30N 29°48' W 092°09'0 0.2
2017-Oct-15 06:00N 29°47' W 092°09'3 6.3
2017-Oct-15 05:30N 29°46' W 092°12'4 7.6
2017-Oct-15 05:00N 29°43' W 092°15'6 7.4
2017-Oct-15 04:15N 29°38' W 092°16'  
2017-Oct-09 08:40N 29°38' W 092°16'1 7.3
2017-Oct-09 08:30N 29°39' W 092°16'4 7.9
2017-Oct-09 08:00N 29°43' W 092°15'4 7.7
2017-Oct-09 07:30N 29°46' W 092°12'3 6.2
2017-Oct-09 07:00N 29°47' W 092°09'1 1.1
2017-Oct-09 06:30N 29°48' W 092°09'0 0.0
2017-Oct-09 06:00N 29°48' W 092°09'0 0.1
2017-Oct-09 05:30N 29°48' W 092°09'0 0.2
2017-Oct-09 05:00N 29°48' W 092°09'0 0.0
2017-Oct-09 04:31N 29°48' W 092°09'0 0.0
2017-Oct-09 04:00N 29°48' W 092°09'0 0.0
2017-Oct-09 03:31N 29°48' W 092°09'0 0.0
2017-Oct-09 03:00N 29°48' W 092°09'0 0.0
2017-Oct-09 02:30N 29°48' W 092°09'0 0.0
2017-Oct-09 02:00N 29°48' W 092°09'0 0.0
2017-Oct-09 01:30N 29°48' W 092°09'0 0.0
2017-Oct-09 01:00N 29°48' W 092°09'0 0.1
2017-Oct-09 00:30N 29°47' W 092°09'0 0.0
2017-Oct-09 00:01N 29°47' W 092°09'0 0.0
2017-Oct-08 23:30N 29°47' W 092°09'0 0.0
2017-Oct-08 23:00N 29°47' W 092°09'0 0.0
2017-Oct-08 22:30N 29°47' W 092°09'0 0.0
2017-Oct-08 22:01N 29°47' W 092°09'1 1.8
2017-Oct-08 21:30N 29°47' W 092°09'3 6.6
2017-Oct-08 21:00N 29°45' W 092°13'4 8.2
2017-Oct-08 20:30N 29°42' W 092°15'  
Track history (hours):
 
Tides and Currents Weather Stations Pressure Air Temp Water Temp Dewpoint Dewpoint Depression Visibility Wind Speed Wind Dir Waves Ship Positions

Adriatic

Owner: ADRIATIC MARINE, LLC, Raceland, LA. More information available from US FCC via Universal Licensing System and Coast Guard Vessel Documentation Center.

Last reported at 2017-Oct-15 11:17 UTC. Time now 2017-Oct-22 23:01 UTC.
Position N 29°38' W 092°16'.

Length 59 m; draft 3.7 m.

Type: Ship. MMSI: 367654230.

Date/timePositionNaut miles runAvg speedWind from/ knotsBaromVisibWave heightAir tempDewpointWater temp
2017-Oct-15 11:17N 29°38' W 092°16'2 8.1
2017-Oct-15 11:00N 29°40' W 092°15'4 8.7
2017-Oct-15 10:30N 29°44' W 092°14'4 8.5
2017-Oct-15 10:00N 29°46' W 092°10'2 3.7
2017-Oct-15 09:30N 29°48' W 092°09'0 0.0
2017-Oct-15 09:00N 29°48' W 092°09'0 0.0
2017-Oct-15 08:30N 29°48' W 092°09'0 0.0
2017-Oct-15 08:00N 29°48' W 092°09'0 0.0
2017-Oct-15 07:30N 29°48' W 092°09'0 0.0
2017-Oct-15 07:00N 29°48' W 092°09'0 0.0
2017-Oct-15 06:30N 29°48' W 092°09'0 0.2
2017-Oct-15 06:00N 29°47' W 092°09'3 6.3
2017-Oct-15 05:30N 29°46' W 092°12'4 7.6
2017-Oct-15 05:00N 29°43' W 092°15'6 7.4
2017-Oct-15 04:15N 29°38' W 092°16'  
2017-Oct-09 08:40N 29°38' W 092°16'1 7.3
2017-Oct-09 08:30N 29°39' W 092°16'4 7.9
2017-Oct-09 08:00N 29°43' W 092°15'4 7.7
2017-Oct-09 07:30N 29°46' W 092°12'3 6.2
2017-Oct-09 07:00N 29°47' W 092°09'1 1.1
2017-Oct-09 06:30N 29°48' W 092°09'0 0.0
2017-Oct-09 06:00N 29°48' W 092°09'0 0.1
2017-Oct-09 05:30N 29°48' W 092°09'0 0.2
2017-Oct-09 05:00N 29°48' W 092°09'0 0.0
2017-Oct-09 04:31N 29°48' W 092°09'0 0.0
2017-Oct-09 04:00N 29°48' W 092°09'0 0.0
2017-Oct-09 03:31N 29°48' W 092°09'0 0.0
2017-Oct-09 03:00N 29°48' W 092°09'0 0.0
2017-Oct-09 02:30N 29°48' W 092°09'0 0.0
2017-Oct-09 02:00N 29°48' W 092°09'0 0.0
2017-Oct-09 01:30N 29°48' W 092°09'0 0.0
2017-Oct-09 01:00N 29°48' W 092°09'0 0.1
2017-Oct-09 00:30N 29°47' W 092°09'0 0.0
2017-Oct-09 00:01N 29°47' W 092°09'0 0.0
2017-Oct-08 23:30N 29°47' W 092°09'0 0.0
2017-Oct-08 23:00N 29°47' W 092°09'0 0.0
2017-Oct-08 22:30N 29°47' W 092°09'0 0.0
2017-Oct-08 22:01N 29°47' W 092°09'1 1.8
2017-Oct-08 21:30N 29°47' W 092°09'3 6.6
2017-Oct-08 21:00N 29°45' W 092°13'4 8.2
2017-Oct-08 20:30N 29°42' W 092°15'  

Dump ship's entire track history